sensor_id;sensor_type;location;lat;lon;timestamp;temperature;humidity
9083;DHT22;4577;48.704;9.000;2023-06-22T00:00:57;23.60;79.10
9083;DHT22;4577;48.704;9.000;2023-06-22T00:03:25;23.50;79.60
9083;DHT22;4577;48.704;9.000;2023-06-22T00:05:51;23.50;80.00
9083;DHT22;4577;48.704;9.000;2023-06-22T00:08:17;23.50;80.20
9083;DHT22;4577;48.704;9.000;2023-06-22T00:10:44;23.50;80.00
9083;DHT22;4577;48.704;9.000;2023-06-22T00:13:10;23.50;80.10
9083;DHT22;4577;48.704;9.000;2023-06-22T00:15:37;23.50;80.00
9083;DHT22;4577;48.704;9.000;2023-06-22T00:18:04;23.40;80.50
9083;DHT22;4577;48.704;9.000;2023-06-22T00:20:30;23.40;80.50
9083;DHT22;4577;48.704;9.000;2023-06-22T00:22:57;23.40;79.90
9083;DHT22;4577;48.704;9.000;2023-06-22T00:25:23;23.40;80.50
9083;DHT22;4577;48.704;9.000;2023-06-22T00:30:16;23.30;80.40
9083;DHT22;4577;48.704;9.000;2023-06-22T00:32:43;23.10;80.60
9083;DHT22;4577;48.704;9.000;2023-06-22T00:35:08;23.20;81.30
9083;DHT22;4577;48.704;9.000;2023-06-22T00:37:36;23.20;81.50
9083;DHT22;4577;48.704;9.000;2023-06-22T00:40:02;23.20;81.20
9083;DHT22;4577;48.704;9.000;2023-06-22T00:42:29;23.20;81.30
9083;DHT22;4577;48.704;9.000;2023-06-22T00:44:55;23.30;81.40
9083;DHT22;4577;48.704;9.000;2023-06-22T00:47:21;23.20;81.40
9083;DHT22;4577;48.704;9.000;2023-06-22T00:49:48;22.90;81.70
9083;DHT22;4577;48.704;9.000;2023-06-22T00:52:17;22.90;82.70
9083;DHT22;4577;48.704;9.000;2023-06-22T00:54:50;23.10;82.50
9083;DHT22;4577;48.704;9.000;2023-06-22T00:57:17;23.00;82.20
9083;DHT22;4577;48.704;9.000;2023-06-22T00:59:44;22.80;82.60
9083;DHT22;4577;48.704;9.000;2023-06-22T01:02:10;22.50;83.70
9083;DHT22;4577;48.704;9.000;2023-06-22T01:04:38;22.50;84.60
9083;DHT22;4577;48.704;9.000;2023-06-22T01:07:34;22.60;84.50
9083;DHT22;4577;48.704;9.000;2023-06-22T01:10:13;22.30;85.60
9083;DHT22;4577;48.704;9.000;2023-06-22T01:12:44;22.10;86.70
9083;DHT22;4577;48.704;9.000;2023-06-22T01:15:16;22.30;87.20
9083;DHT22;4577;48.704;9.000;2023-06-22T01:17:45;22.50;86.40
9083;DHT22;4577;48.704;9.000;2023-06-22T01:20:14;22.30;85.80
9083;DHT22;4577;48.704;9.000;2023-06-22T01:25:48;22.30;86.90
9083;DHT22;4577;48.704;9.000;2023-06-22T01:28:47;22.40;87.10
9083;DHT22;4577;48.704;9.000;2023-06-22T01:31:16;22.50;86.70
9083;DHT22;4577;48.704;9.000;2023-06-22T01:33:45;22.60;86.00
9083;DHT22;4577;48.704;9.000;2023-06-22T01:36:12;22.50;86.40
9083;DHT22;4577;48.704;9.000;2023-06-22T01:38:39;22.60;86.50
9083;DHT22;4577;48.704;9.000;2023-06-22T01:41:05;22.70;86.10
9083;DHT22;4577;48.704;9.000;2023-06-22T01:43:32;22.60;85.90
9083;DHT22;4577;48.704;9.000;2023-06-22T01:45:59;22.60;86.10
9083;DHT22;4577;48.704;9.000;2023-06-22T01:48:25;22.60;86.00
9083;DHT22;4577;48.704;9.000;2023-06-22T01:50:52;22.60;86.30
9083;DHT22;4577;48.704;9.000;2023-06-22T01:53:21;22.60;86.70
9083;DHT22;4577;48.704;9.000;2023-06-22T01:55:47;22.60;86.90
9083;DHT22;4577;48.704;9.000;2023-06-22T01:58:13;22.60;86.50
9083;DHT22;4577;48.704;9.000;2023-06-22T02:00:40;22.40;86.80
9083;DHT22;4577;48.704;9.000;2023-06-22T02:03:13;22.40;87.20
9083;DHT22;4577;48.704;9.000;2023-06-22T02:05:49;22.40;87.50
9083;DHT22;4577;48.704;9.000;2023-06-22T02:08:30;22.50;87.70
9083;DHT22;4577;48.704;9.000;2023-06-22T02:10:57;22.40;87.30
9083;DHT22;4577;48.704;9.000;2023-06-22T02:13:24;22.40;87.40
9083;DHT22;4577;48.704;9.000;2023-06-22T02:15:50;22.30;87.50
9083;DHT22;4577;48.704;9.000;2023-06-22T02:18:16;22.30;87.90
9083;DHT22;4577;48.704;9.000;2023-06-22T02:20:42;22.30;88.20
9083;DHT22;4577;48.704;9.000;2023-06-22T02:23:08;22.20;87.90
9083;DHT22;4577;48.704;9.000;2023-06-22T02:25:34;22.00;88.40
9083;DHT22;4577;48.704;9.000;2023-06-22T02:28:00;21.80;89.60
9083;DHT22;4577;48.704;9.000;2023-06-22T02:30:26;21.50;90.40
9083;DHT22;4577;48.704;9.000;2023-06-22T02:32:52;21.80;90.50
9083;DHT22;4577;48.704;9.000;2023-06-22T02:35:25;21.80;90.60
9083;DHT22;4577;48.704;9.000;2023-06-22T02:37:51;21.90;90.30
9083;DHT22;4577;48.704;9.000;2023-06-22T02:40:17;22.00;90.00
9083;DHT22;4577;48.704;9.000;2023-06-22T02:42:43;21.80;90.10
9083;DHT22;4577;48.704;9.000;2023-06-22T02:45:09;21.60;90.50
9083;DHT22;4577;48.704;9.000;2023-06-22T02:47:35;21.70;90.60
9083;DHT22;4577;48.704;9.000;2023-06-22T02:50:00;21.80;90.60
9083;DHT22;4577;48.704;9.000;2023-06-22T02:52:26;21.90;90.40
9083;DHT22;4577;48.704;9.000;2023-06-22T02:54:52;21.90;90.30
9083;DHT22;4577;48.704;9.000;2023-06-22T02:57:18;21.90;90.20
9083;DHT22;4577;48.704;9.000;2023-06-22T02:59:43;21.90;90.30
9083;DHT22;4577;48.704;9.000;2023-06-22T03:02:09;21.80;90.30
9083;DHT22;4577;48.704;9.000;2023-06-22T03:04:36;21.80;90.40
9083;DHT22;4577;48.704;9.000;2023-06-22T03:07:02;21.80;90.50
9083;DHT22;4577;48.704;9.000;2023-06-22T03:09:28;21.80;90.40
9083;DHT22;4577;48.704;9.000;2023-06-22T03:11:54;21.60;90.50
9083;DHT22;4577;48.704;9.000;2023-06-22T03:14:20;21.40;90.80
9083;DHT22;4577;48.704;9.000;2023-06-22T03:16:46;21.20;91.50
9083;DHT22;4577;48.704;9.000;2023-06-22T03:19:12;21.00;92.10
9083;DHT22;4577;48.704;9.000;2023-06-22T03:21:38;20.90;92.50
9083;DHT22;4577;48.704;9.000;2023-06-22T03:24:05;20.90;92.90
9083;DHT22;4577;48.704;9.000;2023-06-22T03:26:30;21.00;92.90
9083;DHT22;4577;48.704;9.000;2023-06-22T03:28:56;21.00;92.90
9083;DHT22;4577;48.704;9.000;2023-06-22T03:31:22;21.10;92.80
9083;DHT22;4577;48.704;9.000;2023-06-22T03:33:49;21.10;92.60
9083;DHT22;4577;48.704;9.000;2023-06-22T03:36:15;21.10;92.80
9083;DHT22;4577;48.704;9.000;2023-06-22T03:38:48;21.10;92.50
9083;DHT22;4577;48.704;9.000;2023-06-22T03:41:14;21.10;92.90
9083;DHT22;4577;48.704;9.000;2023-06-22T03:43:40;21.20;92.70
9083;DHT22;4577;48.704;9.000;2023-06-22T03:46:06;21.40;92.50
9083;DHT22;4577;48.704;9.000;2023-06-22T03:48:32;21.40;92.30
9083;DHT22;4577;48.704;9.000;2023-06-22T03:50:59;21.30;92.10
9083;DHT22;4577;48.704;9.000;2023-06-22T03:53:24;21.30;92.20
9083;DHT22;4577;48.704;9.000;2023-06-22T03:55:51;21.20;92.40
9083;DHT22;4577;48.704;9.000;2023-06-22T03:58:19;21.30;92.60
9083;DHT22;4577;48.704;9.000;2023-06-22T04:00:46;21.30;92.80
9083;DHT22;4577;48.704;9.000;2023-06-22T04:03:12;21.40;92.70
9083;DHT22;4577;48.704;9.000;2023-06-22T04:05:39;21.40;92.40
9083;DHT22;4577;48.704;9.000;2023-06-22T04:08:05;21.40;92.50
9083;DHT22;4577;48.704;9.000;2023-06-22T04:10:30;21.20;92.40
9083;DHT22;4577;48.704;9.000;2023-06-22T04:12:56;21.50;92.50
9083;DHT22;4577;48.704;9.000;2023-06-22T04:15:22;21.30;92.60
9083;DHT22;4577;48.704;9.000;2023-06-22T04:17:47;21.30;92.60
9083;DHT22;4577;48.704;9.000;2023-06-22T04:20:13;21.30;92.80
9083;DHT22;4577;48.704;9.000;2023-06-22T04:22:39;21.40;93.00
9083;DHT22;4577;48.704;9.000;2023-06-22T04:25:06;21.40;92.70
9083;DHT22;4577;48.704;9.000;2023-06-22T04:27:33;21.50;92.40
9083;DHT22;4577;48.704;9.000;2023-06-22T04:30:06;21.50;92.40
9083;DHT22;4577;48.704;9.000;2023-06-22T04:32:33;21.50;92.40
9083;DHT22;4577;48.704;9.000;2023-06-22T04:34:58;21.50;92.20
9083;DHT22;4577;48.704;9.000;2023-06-22T04:37:26;21.50;92.50
9083;DHT22;4577;48.704;9.000;2023-06-22T04:39:51;21.50;92.40
9083;DHT22;4577;48.704;9.000;2023-06-22T04:42:17;21.50;92.20
9083;DHT22;4577;48.704;9.000;2023-06-22T04:44:43;21.50;92.00
9083;DHT22;4577;48.704;9.000;2023-06-22T04:47:08;21.40;92.20
9083;DHT22;4577;48.704;9.000;2023-06-22T04:49:35;21.40;92.30
9083;DHT22;4577;48.704;9.000;2023-06-22T04:52:10;21.40;92.50
9083;DHT22;4577;48.704;9.000;2023-06-22T04:54:37;21.40;92.50
9083;DHT22;4577;48.704;9.000;2023-06-22T04:57:05;21.40;92.50
9083;DHT22;4577;48.704;9.000;2023-06-22T05:02:02;21.20;92.70
9083;DHT22;4577;48.704;9.000;2023-06-22T05:04:29;21.20;93.10
9083;DHT22;4577;48.704;9.000;2023-06-22T05:06:57;21.20;93.10
9083;DHT22;4577;48.704;9.000;2023-06-22T05:09:23;21.20;93.00
9083;DHT22;4577;48.704;9.000;2023-06-22T05:11:50;21.30;93.00
9083;DHT22;4577;48.704;9.000;2023-06-22T05:14:16;21.40;92.90
9083;DHT22;4577;48.704;9.000;2023-06-22T05:16:43;21.50;93.10
9083;DHT22;4577;48.704;9.000;2023-06-22T05:19:09;21.50;92.60
9083;DHT22;4577;48.704;9.000;2023-06-22T05:21:35;21.60;92.40
9083;DHT22;4577;48.704;9.000;2023-06-22T05:24:00;21.60;92.20
9083;DHT22;4577;48.704;9.000;2023-06-22T05:26:29;21.60;92.10
9083;DHT22;4577;48.704;9.000;2023-06-22T05:28:55;21.60;92.10
9083;DHT22;4577;48.704;9.000;2023-06-22T05:31:21;21.70;92.10
9083;DHT22;4577;48.704;9.000;2023-06-22T05:33:48;21.70;91.70
9083;DHT22;4577;48.704;9.000;2023-06-22T05:36:14;21.70;91.70
9083;DHT22;4577;48.704;9.000;2023-06-22T05:38:41;21.80;91.80
9083;DHT22;4577;48.704;9.000;2023-06-22T05:41:08;21.70;91.50
9083;DHT22;4577;48.704;9.000;2023-06-22T05:43:33;21.80;91.50
9083;DHT22;4577;48.704;9.000;2023-06-22T05:46:00;21.80;91.50
9083;DHT22;4577;48.704;9.000;2023-06-22T05:48:26;21.90;91.30
9083;DHT22;4577;48.704;9.000;2023-06-22T05:50:52;21.90;90.90
9083;DHT22;4577;48.704;9.000;2023-06-22T05:53:18;21.90;91.00
9083;DHT22;4577;48.704;9.000;2023-06-22T05:55:44;21.90;90.90
9083;DHT22;4577;48.704;9.000;2023-06-22T05:58:10;21.90;90.60
9083;DHT22;4577;48.704;9.000;2023-06-22T06:00:36;21.90;90.80
9083;DHT22;4577;48.704;9.000;2023-06-22T06:03:02;22.00;90.70
9083;DHT22;4577;48.704;9.000;2023-06-22T06:05:32;22.00;90.60
9083;DHT22;4577;48.704;9.000;2023-06-22T06:08:00;22.00;90.20
9083;DHT22;4577;48.704;9.000;2023-06-22T06:10:26;22.00;90.30
9083;DHT22;4577;48.704;9.000;2023-06-22T06:12:52;22.10;89.90
9083;DHT22;4577;48.704;9.000;2023-06-22T06:15:18;22.10;90.20
9083;DHT22;4577;48.704;9.000;2023-06-22T06:17:53;22.10;90.10
9083;DHT22;4577;48.704;9.000;2023-06-22T06:20:20;22.20;90.00
9083;DHT22;4577;48.704;9.000;2023-06-22T06:22:46;22.20;89.90
9083;DHT22;4577;48.704;9.000;2023-06-22T06:25:12;22.20;89.50
9083;DHT22;4577;48.704;9.000;2023-06-22T06:27:49;22.20;88.90
9083;DHT22;4577;48.704;9.000;2023-06-22T06:30:16;22.20;89.50
9083;DHT22;4577;48.704;9.000;2023-06-22T06:32:42;22.20;88.90
9083;DHT22;4577;48.704;9.000;2023-06-22T06:35:10;22.20;87.90
9083;DHT22;4577;48.704;9.000;2023-06-22T06:37:37;22.30;87.70
9083;DHT22;4577;48.704;9.000;2023-06-22T06:40:07;22.30;87.70
9083;DHT22;4577;48.704;9.000;2023-06-22T06:42:43;22.40;87.90
9083;DHT22;4577;48.704;9.000;2023-06-22T06:45:23;22.40;87.20
9083;DHT22;4577;48.704;9.000;2023-06-22T06:47:50;22.40;86.70
9083;DHT22;4577;48.704;9.000;2023-06-22T06:50:17;22.40;86.30
9083;DHT22;4577;48.704;9.000;2023-06-22T06:52:43;22.50;86.70
9083;DHT22;4577;48.704;9.000;2023-06-22T06:55:09;22.50;86.70
9083;DHT22;4577;48.704;9.000;2023-06-22T06:57:39;22.60;85.40
9083;DHT22;4577;48.704;9.000;2023-06-22T07:00:14;22.70;85.30
9083;DHT22;4577;48.704;9.000;2023-06-22T07:02:44;22.70;85.80
9083;DHT22;4577;48.704;9.000;2023-06-22T07:05:12;22.70;85.90
9083;DHT22;4577;48.704;9.000;2023-06-22T07:07:38;22.80;84.70
9083;DHT22;4577;48.704;9.000;2023-06-22T07:10:05;22.80;84.00
9083;DHT22;4577;48.704;9.000;2023-06-22T07:12:31;22.70;84.30
9083;DHT22;4577;48.704;9.000;2023-06-22T07:15:07;22.70;85.20
9083;DHT22;4577;48.704;9.000;2023-06-22T07:17:34;22.80;84.70
9083;DHT22;4577;48.704;9.000;2023-06-22T07:20:01;22.80;84.40
9083;DHT22;4577;48.704;9.000;2023-06-22T07:22:27;22.90;84.80
9083;DHT22;4577;48.704;9.000;2023-06-22T07:24:52;23.00;84.60
9083;DHT22;4577;48.704;9.000;2023-06-22T07:27:18;23.00;84.00
9083;DHT22;4577;48.704;9.000;2023-06-22T07:29:45;23.10;83.50
9083;DHT22;4577;48.704;9.000;2023-06-22T07:32:11;23.10;83.50
9083;DHT22;4577;48.704;9.000;2023-06-22T07:34:37;23.20;83.80
9083;DHT22;4577;48.704;9.000;2023-06-22T07:37:02;23.20;83.30
9083;DHT22;4577;48.704;9.000;2023-06-22T07:39:30;23.30;82.70
9083;DHT22;4577;48.704;9.000;2023-06-22T07:41:58;23.30;83.40
9083;DHT22;4577;48.704;9.000;2023-06-22T07:44:24;23.30;82.60
9083;DHT22;4577;48.704;9.000;2023-06-22T07:46:50;23.30;82.10
9083;DHT22;4577;48.704;9.000;2023-06-22T07:49:16;26.60;86.20
9083;DHT22;4577;48.704;9.000;2023-06-22T07:51:42;23.50;82.80
9083;DHT22;4577;48.704;9.000;2023-06-22T07:54:09;23.50;82.80
9083;DHT22;4577;48.704;9.000;2023-06-22T07:56:35;23.50;82.10
9083;DHT22;4577;48.704;9.000;2023-06-22T07:59:01;23.60;81.30
9083;DHT22;4577;48.704;9.000;2023-06-22T08:01:29;23.60;80.30
9083;DHT22;4577;48.704;9.000;2023-06-22T08:03:55;23.70;81.60
9083;DHT22;4577;48.704;9.000;2023-06-22T08:06:20;23.70;81.10
9083;DHT22;4577;48.704;9.000;2023-06-22T08:08:46;23.60;81.00
9083;DHT22;4577;48.704;9.000;2023-06-22T08:11:14;23.70;81.00
9083;DHT22;4577;48.704;9.000;2023-06-22T08:13:40;23.70;80.90
9083;DHT22;4577;48.704;9.000;2023-06-22T08:16:05;23.80;80.00
9083;DHT22;4577;48.704;9.000;2023-06-22T08:18:32;23.90;79.10
9083;DHT22;4577;48.704;9.000;2023-06-22T08:20:58;24.00;78.50
9083;DHT22;4577;48.704;9.000;2023-06-22T08:23:24;24.00;77.90
9083;DHT22;4577;48.704;9.000;2023-06-22T08:25:49;24.10;78.50
9083;DHT22;4577;48.704;9.000;2023-06-22T08:28:16;24.20;78.00
9083;DHT22;4577;48.704;9.000;2023-06-22T08:30:41;24.30;78.00
9083;DHT22;4577;48.704;9.000;2023-06-22T08:33:07;24.20;78.00
9083;DHT22;4577;48.704;9.000;2023-06-22T08:35:33;24.20;78.40
9083;DHT22;4577;48.704;9.000;2023-06-22T08:37:58;24.30;79.00
9083;DHT22;4577;48.704;9.000;2023-06-22T08:40:25;24.30;78.60
9083;DHT22;4577;48.704;9.000;2023-06-22T08:42:51;24.50;77.70
9083;DHT22;4577;48.704;9.000;2023-06-22T08:47:43;24.60;77.20
9083;DHT22;4577;48.704;9.000;2023-06-22T08:50:09;27.90;80.80
9083;DHT22;4577;48.704;9.000;2023-06-22T08:52:35;24.60;78.10
9083;DHT22;4577;48.704;9.000;2023-06-22T08:55:01;24.60;78.20
9083;DHT22;4577;48.704;9.000;2023-06-22T08:57:27;24.70;77.90
9083;DHT22;4577;48.704;9.000;2023-06-22T08:59:53;24.70;77.80
9083;DHT22;4577;48.704;9.000;2023-06-22T09:02:19;24.70;78.10
9083;DHT22;4577;48.704;9.000;2023-06-22T09:04:48;24.90;77.70
9083;DHT22;4577;48.704;9.000;2023-06-22T09:07:15;24.80;77.30
9083;DHT22;4577;48.704;9.000;2023-06-22T09:09:47;24.90;77.00
9083;DHT22;4577;48.704;9.000;2023-06-22T09:12:13;24.90;77.50
9083;DHT22;4577;48.704;9.000;2023-06-22T09:14:39;24.90;76.90
9083;DHT22;4577;48.704;9.000;2023-06-22T09:17:04;25.00;76.70
9083;DHT22;4577;48.704;9.000;2023-06-22T09:19:30;25.00;77.20
9083;DHT22;4577;48.704;9.000;2023-06-22T09:21:56;25.00;77.60
9083;DHT22;4577;48.704;9.000;2023-06-22T09:24:21;25.00;77.90
9083;DHT22;4577;48.704;9.000;2023-06-22T09:26:47;25.00;77.60
9083;DHT22;4577;48.704;9.000;2023-06-22T09:29:13;25.00;78.80
9083;DHT22;4577;48.704;9.000;2023-06-22T09:31:39;25.20;77.80
9083;DHT22;4577;48.704;9.000;2023-06-22T09:34:04;25.20;76.70
9083;DHT22;4577;48.704;9.000;2023-06-22T09:36:30;25.30;75.40
9083;DHT22;4577;48.704;9.000;2023-06-22T09:38:56;25.40;75.70
9083;DHT22;4577;48.704;9.000;2023-06-22T09:41:24;25.40;74.50
9083;DHT22;4577;48.704;9.000;2023-06-22T09:43:50;25.50;74.40
9083;DHT22;4577;48.704;9.000;2023-06-22T09:46:16;25.50;74.80
9083;DHT22;4577;48.704;9.000;2023-06-22T09:48:42;25.60;73.60
9083;DHT22;4577;48.704;9.000;2023-06-22T09:51:07;25.50;73.40
9083;DHT22;4577;48.704;9.000;2023-06-22T09:53:33;25.50;74.30
9083;DHT22;4577;48.704;9.000;2023-06-22T09:56:00;25.60;74.40
9083;DHT22;4577;48.704;9.000;2023-06-22T09:58:30;25.70;74.00
9083;DHT22;4577;48.704;9.000;2023-06-22T10:00:55;25.70;74.30
9083;DHT22;4577;48.704;9.000;2023-06-22T10:03:21;25.60;72.50
9083;DHT22;4577;48.704;9.000;2023-06-22T10:05:48;25.80;73.20
9083;DHT22;4577;48.704;9.000;2023-06-22T10:08:13;25.80;72.80
9083;DHT22;4577;48.704;9.000;2023-06-22T10:10:39;26.00;73.10
9083;DHT22;4577;48.704;9.000;2023-06-22T10:13:09;26.00;72.00
9083;DHT22;4577;48.704;9.000;2023-06-22T10:15:38;26.10;71.10
9083;DHT22;4577;48.704;9.000;2023-06-22T10:18:04;26.10;70.10
9083;DHT22;4577;48.704;9.000;2023-06-22T10:20:30;26.20;70.60
9083;DHT22;4577;48.704;9.000;2023-06-22T10:22:56;26.30;70.00
9083;DHT22;4577;48.704;9.000;2023-06-22T10:25:22;26.30;70.20
9083;DHT22;4577;48.704;9.000;2023-06-22T10:27:48;26.50;69.20
9083;DHT22;4577;48.704;9.000;2023-06-22T10:30:14;26.60;69.40
9083;DHT22;4577;48.704;9.000;2023-06-22T10:32:41;26.50;70.40
9083;DHT22;4577;48.704;9.000;2023-06-22T10:35:08;26.60;70.70
9083;DHT22;4577;48.704;9.000;2023-06-22T10:37:36;26.60;71.30
9083;DHT22;4577;48.704;9.000;2023-06-22T10:40:02;26.80;71.80
9083;DHT22;4577;48.704;9.000;2023-06-22T10:42:29;26.80;71.50
9083;DHT22;4577;48.704;9.000;2023-06-22T10:44:55;26.90;71.30
9083;DHT22;4577;48.704;9.000;2023-06-22T10:47:20;26.90;69.90
9083;DHT22;4577;48.704;9.000;2023-06-22T10:49:46;26.90;69.20
9083;DHT22;4577;48.704;9.000;2023-06-22T10:52:12;26.90;70.00
9083;DHT22;4577;48.704;9.000;2023-06-22T10:54:37;27.10;69.50
9083;DHT22;4577;48.704;9.000;2023-06-22T10:57:03;27.10;68.00
9083;DHT22;4577;48.704;9.000;2023-06-22T10:59:29;27.20;68.70
9083;DHT22;4577;48.704;9.000;2023-06-22T11:01:56;27.10;68.80
9083;DHT22;4577;48.704;9.000;2023-06-22T11:04:22;27.10;69.20
9083;DHT22;4577;48.704;9.000;2023-06-22T11:06:48;27.10;68.30
9083;DHT22;4577;48.704;9.000;2023-06-22T11:09:14;27.20;66.30
9083;DHT22;4577;48.704;9.000;2023-06-22T11:11:51;27.20;66.40
9083;DHT22;4577;48.704;9.000;2023-06-22T11:14:19;27.20;67.50
9083;DHT22;4577;48.704;9.000;2023-06-22T11:16:45;27.40;67.00
9083;DHT22;4577;48.704;9.000;2023-06-22T11:19:12;27.30;67.50
9083;DHT22;4577;48.704;9.000;2023-06-22T11:21:37;27.30;67.50
9083;DHT22;4577;48.704;9.000;2023-06-22T11:24:03;27.30;67.70
9083;DHT22;4577;48.704;9.000;2023-06-22T11:26:29;27.20;67.60
9083;DHT22;4577;48.704;9.000;2023-06-22T11:28:55;27.30;67.80
9083;DHT22;4577;48.704;9.000;2023-06-22T11:31:21;27.30;68.20
9083;DHT22;4577;48.704;9.000;2023-06-22T11:33:46;27.30;68.30
9083;DHT22;4577;48.704;9.000;2023-06-22T11:36:14;27.30;68.30
9083;DHT22;4577;48.704;9.000;2023-06-22T11:38:40;27.40;68.40
9083;DHT22;4577;48.704;9.000;2023-06-22T11:41:06;27.50;68.60
9083;DHT22;4577;48.704;9.000;2023-06-22T11:43:32;27.50;68.10
9083;DHT22;4577;48.704;9.000;2023-06-22T11:45:59;25.50;65.90
9083;DHT22;4577;48.704;9.000;2023-06-22T11:48:25;27.60;67.30
9083;DHT22;4577;48.704;9.000;2023-06-22T11:50:51;27.50;67.30
9083;DHT22;4577;48.704;9.000;2023-06-22T11:53:17;27.50;66.80
9083;DHT22;4577;48.704;9.000;2023-06-22T11:55:44;27.60;67.50
9083;DHT22;4577;48.704;9.000;2023-06-22T11:58:10;27.70;67.40
9083;DHT22;4577;48.704;9.000;2023-06-22T12:00:37;27.70;66.90
9083;DHT22;4577;48.704;9.000;2023-06-22T12:03:02;27.70;67.20
9083;DHT22;4577;48.704;9.000;2023-06-22T12:05:28;27.60;67.20
9083;DHT22;4577;48.704;9.000;2023-06-22T12:07:54;27.60;66.80
9083;DHT22;4577;48.704;9.000;2023-06-22T12:10:22;27.50;66.90
9083;DHT22;4577;48.704;9.000;2023-06-22T12:12:47;27.60;67.10
9083;DHT22;4577;48.704;9.000;2023-06-22T12:15:13;27.70;67.00
9083;DHT22;4577;48.704;9.000;2023-06-22T12:17:42;27.70;67.30
9083;DHT22;4577;48.704;9.000;2023-06-22T12:20:08;27.70;66.90
9083;DHT22;4577;48.704;9.000;2023-06-22T12:22:34;27.70;67.20
9083;DHT22;4577;48.704;9.000;2023-06-22T12:25:01;27.70;67.40
9083;DHT22;4577;48.704;9.000;2023-06-22T12:27:27;27.70;67.20
9083;DHT22;4577;48.704;9.000;2023-06-22T12:29:52;27.70;67.00
9083;DHT22;4577;48.704;9.000;2023-06-22T12:32:18;27.70;66.80
9083;DHT22;4577;48.704;9.000;2023-06-22T12:34:44;27.70;66.60
9083;DHT22;4577;48.704;9.000;2023-06-22T12:37:10;27.80;66.50
9083;DHT22;4577;48.704;9.000;2023-06-22T12:39:36;27.80;66.60
9083;DHT22;4577;48.704;9.000;2023-06-22T12:42:02;27.80;66.20
9083;DHT22;4577;48.704;9.000;2023-06-22T12:44:28;27.80;66.60
9083;DHT22;4577;48.704;9.000;2023-06-22T12:46:54;27.80;66.70
9083;DHT22;4577;48.704;9.000;2023-06-22T12:49:19;27.80;66.70
9083;DHT22;4577;48.704;9.000;2023-06-22T12:51:45;27.80;67.30
9083;DHT22;4577;48.704;9.000;2023-06-22T12:54:11;27.80;67.80
9083;DHT22;4577;48.704;9.000;2023-06-22T12:56:38;27.70;68.20
9083;DHT22;4577;48.704;9.000;2023-06-22T12:59:04;27.70;68.60
9083;DHT22;4577;48.704;9.000;2023-06-22T13:01:31;27.70;69.50
9083;DHT22;4577;48.704;9.000;2023-06-22T13:03:58;27.70;70.00
9083;DHT22;4577;48.704;9.000;2023-06-22T13:06:24;27.60;70.20
9083;DHT22;4577;48.704;9.000;2023-06-22T13:08:49;27.60;70.40
9083;DHT22;4577;48.704;9.000;2023-06-22T13:11:15;27.60;70.40
9083;DHT22;4577;48.704;9.000;2023-06-22T13:13:41;27.60;69.50
9083;DHT22;4577;48.704;9.000;2023-06-22T13:16:07;27.70;67.20
9083;DHT22;4577;48.704;9.000;2023-06-22T13:18:33;27.60;66.90
9083;DHT22;4577;48.704;9.000;2023-06-22T13:21:04;27.70;67.80
9083;DHT22;4577;48.704;9.000;2023-06-22T13:23:30;27.70;67.10
9083;DHT22;4577;48.704;9.000;2023-06-22T13:25:57;27.70;66.80
9083;DHT22;4577;48.704;9.000;2023-06-22T13:28:23;27.80;65.20
9083;DHT22;4577;48.704;9.000;2023-06-22T13:30:49;27.80;65.60
9083;DHT22;4577;48.704;9.000;2023-06-22T13:33:15;27.80;64.80
9083;DHT22;4577;48.704;9.000;2023-06-22T13:35:41;27.90;64.90
9083;DHT22;4577;48.704;9.000;2023-06-22T13:38:09;28.00;64.70
9083;DHT22;4577;48.704;9.000;2023-06-22T13:40:36;28.00;64.70
9083;DHT22;4577;48.704;9.000;2023-06-22T13:43:03;28.10;65.10
9083;DHT22;4577;48.704;9.000;2023-06-22T13:45:29;28.10;64.80
9083;DHT22;4577;48.704;9.000;2023-06-22T13:47:55;28.00;64.50
9083;DHT22;4577;48.704;9.000;2023-06-22T13:50:20;28.20;64.50
9083;DHT22;4577;48.704;9.000;2023-06-22T13:52:46;28.10;63.30
9083;DHT22;4577;48.704;9.000;2023-06-22T13:55:12;28.10;63.20
9083;DHT22;4577;48.704;9.000;2023-06-22T13:57:40;28.10;61.80
9083;DHT22;4577;48.704;9.000;2023-06-22T14:00:06;28.20;61.30
9083;DHT22;4577;48.704;9.000;2023-06-22T14:02:34;28.20;61.80
9083;DHT22;4577;48.704;9.000;2023-06-22T14:05:00;28.30;61.40
9083;DHT22;4577;48.704;9.000;2023-06-22T14:07:26;28.20;63.10
9083;DHT22;4577;48.704;9.000;2023-06-22T14:09:51;28.30;61.60
9083;DHT22;4577;48.704;9.000;2023-06-22T14:12:17;28.50;62.30
9083;DHT22;4577;48.704;9.000;2023-06-22T14:14:46;28.90;60.50
9083;DHT22;4577;48.704;9.000;2023-06-22T14:17:12;28.70;61.40
9083;DHT22;4577;48.704;9.000;2023-06-22T14:19:37;29.60;57.20
9083;DHT22;4577;48.704;9.000;2023-06-22T14:22:03;28.90;57.20
9083;DHT22;4577;48.704;9.000;2023-06-22T14:24:29;28.90;56.90
9083;DHT22;4577;48.704;9.000;2023-06-22T14:26:55;28.90;54.30
9083;DHT22;4577;48.704;9.000;2023-06-22T14:29:21;29.20;48.80
9083;DHT22;4577;48.704;9.000;2023-06-22T14:31:48;29.40;41.50
9083;DHT22;4577;48.704;9.000;2023-06-22T14:34:15;29.30;45.20
9083;DHT22;4577;48.704;9.000;2023-06-22T14:36:42;29.30;44.70
9083;DHT22;4577;48.704;9.000;2023-06-22T14:39:09;29.60;40.70
9083;DHT22;4577;48.704;9.000;2023-06-22T14:41:34;29.70;40.10
9083;DHT22;4577;48.704;9.000;2023-06-22T14:44:00;29.80;39.80
9083;DHT22;4577;48.704;9.000;2023-06-22T14:46:27;29.80;39.20
9083;DHT22;4577;48.704;9.000;2023-06-22T14:48:53;29.80;38.80
9083;DHT22;4577;48.704;9.000;2023-06-22T14:51:18;29.70;38.30
9083;DHT22;4577;48.704;9.000;2023-06-22T14:53:45;29.70;38.60
9083;DHT22;4577;48.704;9.000;2023-06-22T14:56:10;29.70;38.90
9083;DHT22;4577;48.704;9.000;2023-06-22T14:58:38;29.70;39.40
9083;DHT22;4577;48.704;9.000;2023-06-22T15:01:05;29.70;39.10
9083;DHT22;4577;48.704;9.000;2023-06-22T15:03:34;29.70;40.30
9083;DHT22;4577;48.704;9.000;2023-06-22T15:06:01;29.70;38.80
9083;DHT22;4577;48.704;9.000;2023-06-22T15:08:27;29.70;37.10
9083;DHT22;4577;48.704;9.000;2023-06-22T15:10:53;29.90;36.70
9083;DHT22;4577;48.704;9.000;2023-06-22T15:13:24;30.00;37.50
9083;DHT22;4577;48.704;9.000;2023-06-22T15:15:51;30.00;37.10
9083;DHT22;4577;48.704;9.000;2023-06-22T15:18:17;30.00;38.00
9083;DHT22;4577;48.704;9.000;2023-06-22T15:20:43;30.00;38.00
9083;DHT22;4577;48.704;9.000;2023-06-22T15:23:13;30.20;37.70
9083;DHT22;4577;48.704;9.000;2023-06-22T15:25:42;30.20;37.20
9083;DHT22;4577;48.704;9.000;2023-06-22T15:28:12;30.20;36.50
9083;DHT22;4577;48.704;9.000;2023-06-22T15:30:37;30.10;36.80
9083;DHT22;4577;48.704;9.000;2023-06-22T15:33:03;30.00;37.70
9083;DHT22;4577;48.704;9.000;2023-06-22T15:35:29;30.00;37.70
9083;DHT22;4577;48.704;9.000;2023-06-22T15:37:54;29.90;38.00
9083;DHT22;4577;48.704;9.000;2023-06-22T15:40:20;29.90;38.40
9083;DHT22;4577;48.704;9.000;2023-06-22T15:42:46;29.90;38.20
9083;DHT22;4577;48.704;9.000;2023-06-22T15:45:13;29.90;39.10
9083;DHT22;4577;48.704;9.000;2023-06-22T15:47:38;29.80;39.00
9083;DHT22;4577;48.704;9.000;2023-06-22T15:50:04;29.80;39.70
9083;DHT22;4577;48.704;9.000;2023-06-22T15:52:30;29.70;39.30
9083;DHT22;4577;48.704;9.000;2023-06-22T15:54:56;29.60;39.10
9083;DHT22;4577;48.704;9.000;2023-06-22T15:57:24;29.50;40.40
9083;DHT22;4577;48.704;9.000;2023-06-22T15:59:51;29.50;40.20
9083;DHT22;4577;48.704;9.000;2023-06-22T16:02:17;29.40;40.10
9083;DHT22;4577;48.704;9.000;2023-06-22T16:04:43;29.40;40.30
9083;DHT22;4577;48.704;9.000;2023-06-22T16:07:09;29.30;40.10
9083;DHT22;4577;48.704;9.000;2023-06-22T16:09:37;29.30;39.40